sensor_id;sensor_type;location;lat;lon;timestamp;pressure;altitude;pressure_sealevel;temperature;humidity
19884;BME280;10104;50.732;10.174;2022-12-26T00:00:37;97516.00;;;11.07;100.00
19884;BME280;10104;50.732;10.174;2022-12-26T00:02:59;97516.22;;;11.12;100.00
19884;BME280;10104;50.732;10.174;2022-12-26T00:05:21;97496.06;;;11.24;100.00
19884;BME280;10104;50.732;10.174;2022-12-26T00:07:42;97509.50;;;11.16;100.00
19884;BME280;10104;50.732;10.174;2022-12-26T00:10:04;97514.19;;;11.21;100.00
19884;BME280;10104;50.732;10.174;2022-12-26T00:12:26;97508.72;;;11.29;100.00
19884;BME280;10104;50.732;10.174;2022-12-26T00:14:47;97516.44;;;11.24;100.00
19884;BME280;10104;50.732;10.174;2022-12-26T00:17:09;97513.19;;;11.28;100.00
19884;BME280;10104;50.732;10.174;2022-12-26T00:19:30;97510.56;;;11.35;100.00
19884;BME280;10104;50.732;10.174;2022-12-26T00:21:52;97506.84;;;11.29;100.00
19884;BME280;10104;50.732;10.174;2022-12-26T00:24:13;97513.19;;;11.28;100.00
19884;BME280;10104;50.732;10.174;2022-12-26T00:26:35;97509.13;;;11.32;100.00
19884;BME280;10104;50.732;10.174;2022-12-26T00:28:57;97494.84;;;11.33;100.00
19884;BME280;10104;50.732;10.174;2022-12-26T00:31:21;97485.06;;;11.41;100.00
19884;BME280;10104;50.732;10.174;2022-12-26T00:33:44;97483.84;;;11.43;99.64
19884;BME280;10104;50.732;10.174;2022-12-26T00:36:08;97490.56;;;11.39;100.00
19884;BME280;10104;50.732;10.174;2022-12-26T00:38:30;97496.88;;;11.31;100.00
19884;BME280;10104;50.732;10.174;2022-12-26T00:40:52;97496.06;;;11.31;100.00
19884;BME280;10104;50.732;10.174;2022-12-26T00:43:13;97500.38;;;11.45;99.14
19884;BME280;10104;50.732;10.174;2022-12-26T00:45:35;97509.97;;;11.46;98.76
19884;BME280;10104;50.732;10.174;2022-12-26T00:47:56;97517.28;;;11.44;99.06
19884;BME280;10104;50.732;10.174;2022-12-26T00:50:18;97521.56;;;11.45;99.06
19884;BME280;10104;50.732;10.174;2022-12-26T00:52:39;97522.78;;;11.43;99.13
19884;BME280;10104;50.732;10.174;2022-12-26T00:55:01;97530.97;;;11.41;99.27
19884;BME280;10104;50.732;10.174;2022-12-26T00:57:22;97518.72;;;11.40;99.13
19884;BME280;10104;50.732;10.174;2022-12-26T00:59:44;97507.50;;;11.38;99.32
19884;BME280;10104;50.732;10.174;2022-12-26T01:02:05;97537.88;;;11.35;99.59
19884;BME280;10104;50.732;10.174;2022-12-26T01:04:47;97529.31;;;11.33;99.74
19884;BME280;10104;50.732;10.174;2022-12-26T01:07:08;97531.97;;;11.33;99.40
19884;BME280;10104;50.732;10.174;2022-12-26T01:09:30;97520.53;;;11.33;99.42
19884;BME280;10104;50.732;10.174;2022-12-26T01:11:51;97515.03;;;11.34;99.43
19884;BME280;10104;50.732;10.174;2022-12-26T01:14:16;97514.22;;;11.34;99.59
19884;BME280;10104;50.732;10.174;2022-12-26T01:16:39;97506.88;;;11.36;99.37
19884;BME280;10104;50.732;10.174;2022-12-26T01:19:01;97506.28;;;11.34;99.69
19884;BME280;10104;50.732;10.174;2022-12-26T01:21:22;97496.69;;;11.46;98.33
19884;BME280;10104;50.732;10.174;2022-12-26T01:23:44;97503.44;;;11.35;98.96
19884;BME280;10104;50.732;10.174;2022-12-26T01:26:05;97505.66;;;11.39;99.42
19884;BME280;10104;50.732;10.174;2022-12-26T01:28:39;97503.84;;;11.46;98.57
19884;BME280;10104;50.732;10.174;2022-12-26T01:31:02;97497.72;;;11.45;99.15
19884;BME280;10104;50.732;10.174;2022-12-26T01:33:24;97491.41;;;11.46;98.31
19884;BME280;10104;50.732;10.174;2022-12-26T01:35:50;97486.72;;;11.42;98.95
19884;BME280;10104;50.732;10.174;2022-12-26T01:38:11;97504.00;;;11.31;99.75
19884;BME280;10104;50.732;10.174;2022-12-26T01:40:33;97500.16;;;11.33;99.54
19884;BME280;10104;50.732;10.174;2022-12-26T01:42:55;97518.72;;;11.40;99.14
19884;BME280;10104;50.732;10.174;2022-12-26T01:45:29;97518.53;;;11.42;98.89
19884;BME280;10104;50.732;10.174;2022-12-26T01:47:57;97508.31;;;11.39;99.02
19884;BME280;10104;50.732;10.174;2022-12-26T01:50:40;97517.91;;;11.46;98.75
19884;BME280;10104;50.732;10.174;2022-12-26T01:53:12;97508.72;;;11.42;99.00
19884;BME280;10104;50.732;10.174;2022-12-26T01:55:35;97518.94;;;11.45;98.86
19884;BME280;10104;50.732;10.174;2022-12-26T01:58:01;97523.81;;;11.48;98.53
19884;BME280;10104;50.732;10.174;2022-12-26T02:00:25;97528.09;;;11.56;98.40
19884;BME280;10104;50.732;10.174;2022-12-26T02:02:47;97514.84;;;11.56;98.34
19884;BME280;10104;50.732;10.174;2022-12-26T02:05:28;97526.88;;;11.52;98.30
19884;BME280;10104;50.732;10.174;2022-12-26T02:07:54;97525.66;;;11.54;97.74
19884;BME280;10104;50.732;10.174;2022-12-26T02:10:19;97524.25;;;11.58;97.96
19884;BME280;10104;50.732;10.174;2022-12-26T02:12:44;97519.75;;;11.59;98.09
19884;BME280;10104;50.732;10.174;2022-12-26T02:15:11;97521.97;;;11.55;98.29
19884;BME280;10104;50.732;10.174;2022-12-26T02:17:33;97521.78;;;11.57;97.70
19884;BME280;10104;50.732;10.174;2022-12-26T02:20:19;97538.72;;;11.62;98.06
19884;BME280;10104;50.732;10.174;2022-12-26T02:28:33;97539.72;;;11.61;98.74
19884;BME280;10104;50.732;10.174;2022-12-26T02:31:12;97530.75;;;11.69;98.10
19884;BME280;10104;50.732;10.174;2022-12-26T02:34:01;97531.19;;;11.66;97.39
19884;BME280;10104;50.732;10.174;2022-12-26T02:50:38;97530.13;;;11.67;98.35
19884;BME280;10104;50.732;10.174;2022-12-26T02:53:46;97535.06;;;11.70;97.48
19884;BME280;10104;50.732;10.174;2022-12-26T02:56:50;97547.69;;;11.68;97.42
19884;BME280;10104;50.732;10.174;2022-12-26T03:00:24;97533.41;;;11.69;97.60
19884;BME280;10104;50.732;10.174;2022-12-26T03:03:02;97535.25;;;11.68;97.42
19884;BME280;10104;50.732;10.174;2022-12-26T03:05:59;97534.06;;;11.78;97.24
19884;BME280;10104;50.732;10.174;2022-12-26T03:08:54;97533.44;;;11.75;96.49
19884;BME280;10104;50.732;10.174;2022-12-26T03:11:39;97550.53;;;11.73;96.85
19884;BME280;10104;50.732;10.174;2022-12-26T03:14:29;97530.59;;;11.77;96.51
19884;BME280;10104;50.732;10.174;2022-12-26T03:16:57;97558.97;;;11.77;96.62
19884;BME280;10104;50.732;10.174;2022-12-26T03:19:40;97540.19;;;11.78;96.16
19884;BME280;10104;50.732;10.174;2022-12-26T03:22:18;97555.28;;;11.78;96.86
19884;BME280;10104;50.732;10.174;2022-12-26T03:24:52;97542.44;;;11.81;96.95
19884;BME280;10104;50.732;10.174;2022-12-26T03:27:32;97527.53;;;11.93;96.68
19884;BME280;10104;50.732;10.174;2022-12-26T03:29:54;97538.56;;;11.97;95.46
19884;BME280;10104;50.732;10.174;2022-12-26T03:32:42;97546.28;;;11.92;95.62
19884;BME280;10104;50.732;10.174;2022-12-26T03:35:11;97543.44;;;11.87;96.12
19884;BME280;10104;50.732;10.174;2022-12-26T03:37:49;97536.50;;;11.86;95.79
19884;BME280;10104;50.732;10.174;2022-12-26T03:40:25;97548.34;;;11.90;95.78
19884;BME280;10104;50.732;10.174;2022-12-26T03:43:15;97545.69;;;11.83;96.46
19884;BME280;10104;50.732;10.174;2022-12-26T03:54:56;97542.44;;;11.74;96.49
19884;BME280;10104;50.732;10.174;2022-12-26T03:57:48;97537.28;;;11.73;96.75
19884;BME280;10104;50.732;10.174;2022-12-26T04:00:30;97544.06;;;11.75;96.76
19884;BME280;10104;50.732;10.174;2022-12-26T04:03:12;97561.16;;;11.73;96.67
19884;BME280;10104;50.732;10.174;2022-12-26T04:05:54;97556.06;;;11.71;97.01
19884;BME280;10104;50.732;10.174;2022-12-26T04:09:01;97552.41;;;11.72;97.28
19884;BME280;10104;50.732;10.174;2022-12-26T04:11:44;97548.16;;;11.78;96.62
19884;BME280;10104;50.732;10.174;2022-12-26T04:14:38;97548.34;;;11.77;96.38
19884;BME280;10104;50.732;10.174;2022-12-26T04:20:14;97538.75;;;11.89;96.61
19884;BME280;10104;50.732;10.174;2022-12-26T04:22:47;97534.28;;;11.83;96.23
19884;BME280;10104;50.732;10.174;2022-12-26T04:25:33;97527.94;;;11.77;97.53
19884;BME280;10104;50.732;10.174;2022-12-26T04:28:15;97530.75;;;11.69;97.89
19884;BME280;10104;50.732;10.174;2022-12-26T04:31:04;97534.66;;;11.66;97.16
19884;BME280;10104;50.732;10.174;2022-12-26T04:33:52;97538.13;;;11.73;97.38
19884;BME280;10104;50.732;10.174;2022-12-26T04:36:58;97547.34;;;11.84;96.53
19884;BME280;10104;50.732;10.174;2022-12-26T04:39:42;97539.78;;;11.74;97.13
19884;BME280;10104;50.732;10.174;2022-12-26T04:42:25;97524.25;;;11.71;97.69
19884;BME280;10104;50.732;10.174;2022-12-26T04:45:06;97519.38;;;11.75;97.31
19884;BME280;10104;50.732;10.174;2022-12-26T04:47:30;97518.13;;;11.64;97.60
19884;BME280;10104;50.732;10.174;2022-12-26T04:49:52;97510.78;;;11.66;97.54
19884;BME280;10104;50.732;10.174;2022-12-26T04:52:32;97499.38;;;11.72;96.72
19884;BME280;10104;50.732;10.174;2022-12-26T04:55:12;97499.94;;;11.61;97.50
19884;BME280;10104;50.732;10.174;2022-12-26T04:57:33;97494.88;;;11.60;97.03
19884;BME280;10104;50.732;10.174;2022-12-26T04:59:55;97491.41;;;11.53;97.96
19884;BME280;10104;50.732;10.174;2022-12-26T05:02:16;97502.00;;;11.46;98.25
19884;BME280;10104;50.732;10.174;2022-12-26T05:04:56;97507.91;;;11.42;98.53
19884;BME280;10104;50.732;10.174;2022-12-26T05:07:36;97509.34;;;11.44;98.43
19884;BME280;10104;50.732;10.174;2022-12-26T05:10:27;97505.03;;;11.43;98.00
19884;BME280;10104;50.732;10.174;2022-12-26T05:12:49;97508.31;;;11.32;99.12
19884;BME280;10104;50.732;10.174;2022-12-26T05:15:10;97520.09;;;11.29;98.98
19884;BME280;10104;50.732;10.174;2022-12-26T05:17:32;97525.84;;;11.33;98.83
19884;BME280;10104;50.732;10.174;2022-12-26T05:20:12;97525.63;;;11.28;99.20
19884;BME280;10104;50.732;10.174;2022-12-26T05:22:52;97525.63;;;11.21;99.46
19884;BME280;10104;50.732;10.174;2022-12-26T05:25:34;97526.22;;;11.23;98.93
19884;BME280;10104;50.732;10.174;2022-12-26T05:28:17;97535.22;;;11.22;99.47
19884;BME280;10104;50.732;10.174;2022-12-26T05:30:57;97534.41;;;11.22;99.60
19884;BME280;10104;50.732;10.174;2022-12-26T05:33:19;97545.16;;;11.14;100.00
19884;BME280;10104;50.732;10.174;2022-12-26T05:35:59;97548.44;;;11.16;100.00
19884;BME280;10104;50.732;10.174;2022-12-26T05:38:20;97554.34;;;11.18;99.94
19884;BME280;10104;50.732;10.174;2022-12-26T05:40:42;97562.91;;;11.20;100.00
19884;BME280;10104;50.732;10.174;2022-12-26T05:43:03;97574.16;;;11.22;100.00
19884;BME280;10104;50.732;10.174;2022-12-26T05:45:25;97581.50;;;11.33;100.00
19884;BME280;10104;50.732;10.174;2022-12-26T05:47:46;97564.59;;;11.34;99.89
19884;BME280;10104;50.732;10.174;2022-12-26T05:50:12;97556.84;;;11.39;99.26
19884;BME280;10104;50.732;10.174;2022-12-26T05:52:34;97554.19;;;11.39;99.56
19884;BME280;10104;50.732;10.174;2022-12-26T05:54:55;97553.38;;;11.39;99.21
19884;BME280;10104;50.732;10.174;2022-12-26T05:57:17;97555.00;;;11.40;99.19
19884;BME280;10104;50.732;10.174;2022-12-26T05:59:38;97545.22;;;11.40;98.14
19884;BME280;10104;50.732;10.174;2022-12-26T06:02:00;97557.03;;;11.38;98.21
19884;BME280;10104;50.732;10.174;2022-12-26T06:04:21;97546.03;;;11.27;98.59
19884;BME280;10104;50.732;10.174;2022-12-26T06:06:43;97543.56;;;11.26;98.92
19884;BME280;10104;50.732;10.174;2022-12-26T06:09:04;97562.75;;;11.28;98.94
19884;BME280;10104;50.732;10.174;2022-12-26T06:11:26;97550.47;;;11.14;99.64
19884;BME280;10104;50.732;10.174;2022-12-26T06:13:47;97541.94;;;11.25;98.63
19884;BME280;10104;50.732;10.174;2022-12-26T06:16:12;97531.94;;;11.27;98.97
19884;BME280;10104;50.732;10.174;2022-12-26T06:18:34;97545.38;;;11.19;98.82
19884;BME280;10104;50.732;10.174;2022-12-26T06:20:55;97555.38;;;11.23;98.59
19884;BME280;10104;50.732;10.174;2022-12-26T06:23:17;97556.59;;;11.21;98.87
19884;BME280;10104;50.732;10.174;2022-12-26T06:25:38;97530.50;;;11.18;98.88
19884;BME280;10104;50.732;10.174;2022-12-26T06:28:00;97518.91;;;11.25;98.90
19884;BME280;10104;50.732;10.174;2022-12-26T06:30:21;97530.50;;;11.24;98.65
19884;BME280;10104;50.732;10.174;2022-12-26T06:32:43;97536.63;;;11.25;98.89
19884;BME280;10104;50.732;10.174;2022-12-26T06:35:05;97529.91;;;11.22;98.84
19884;BME280;10104;50.732;10.174;2022-12-26T06:37:26;97553.97;;;11.27;98.85
19884;BME280;10104;50.732;10.174;2022-12-26T06:39:48;97560.91;;;11.28;98.60
19884;BME280;10104;50.732;10.174;2022-12-26T06:42:09;97573.13;;;11.23;99.31
19884;BME280;10104;50.732;10.174;2022-12-26T06:44:31;97577.19;;;11.19;99.33
19884;BME280;10104;50.732;10.174;2022-12-26T06:46:52;97590.25;;;11.20;99.51
19884;BME280;10104;50.732;10.174;2022-12-26T06:49:14;97596.53;;;11.19;99.72
19884;BME280;10104;50.732;10.174;2022-12-26T06:51:35;97565.56;;;11.20;99.74
19884;BME280;10104;50.732;10.174;2022-12-26T06:53:59;97573.34;;;11.28;99.49
19884;BME280;10104;50.732;10.174;2022-12-26T06:56:24;97561.09;;;11.27;99.39
19884;BME280;10104;50.732;10.174;2022-12-26T06:58:47;97559.88;;;11.36;98.92
19884;BME280;10104;50.732;10.174;2022-12-26T07:01:14;97563.97;;;11.39;98.94
19884;BME280;10104;50.732;10.174;2022-12-26T07:03:37;97567.03;;;11.29;98.42
19884;BME280;10104;50.732;10.174;2022-12-26T07:06:03;97576.00;;;11.28;98.68
19884;BME280;10104;50.732;10.174;2022-12-26T07:08:24;97582.94;;;11.29;98.72
19884;BME280;10104;50.732;10.174;2022-12-26T07:10:46;97585.78;;;11.27;97.87
19884;BME280;10104;50.732;10.174;2022-12-26T07:13:07;97581.28;;;11.28;98.25
19884;BME280;10104;50.732;10.174;2022-12-26T07:15:29;97592.50;;;11.36;98.00
19884;BME280;10104;50.732;10.174;2022-12-26T07:17:51;97594.13;;;11.31;98.30
19884;BME280;10104;50.732;10.174;2022-12-26T07:20:12;97593.56;;;11.35;98.02
19884;BME280;10104;50.732;10.174;2022-12-26T07:22:34;97599.03;;;11.27;98.28
19884;BME280;10104;50.732;10.174;2022-12-26T07:24:55;97616.78;;;11.33;97.77
19884;BME280;10104;50.732;10.174;2022-12-26T07:27:16;97591.69;;;11.36;97.81
19884;BME280;10104;50.732;10.174;2022-12-26T07:29:38;97592.53;;;11.43;97.87
19884;BME280;10104;50.732;10.174;2022-12-26T07:31:59;97592.94;;;11.40;97.88
19884;BME280;10104;50.732;10.174;2022-12-26T07:34:21;97587.03;;;11.45;97.29
19884;BME280;10104;50.732;10.174;2022-12-26T07:36:51;97600.28;;;11.45;97.80
19884;BME280;10104;50.732;10.174;2022-12-26T07:39:13;97600.47;;;11.43;97.22
19884;BME280;10104;50.732;10.174;2022-12-26T07:41:34;97606.81;;;11.49;97.84
19884;BME280;10104;50.732;10.174;2022-12-26T07:44:14;97616.81;;;11.40;98.24
19884;BME280;10104;50.732;10.174;2022-12-26T07:46:36;97610.88;;;11.38;98.82
19884;BME280;10104;50.732;10.174;2022-12-26T07:48:58;97621.06;;;11.34;98.90
19884;BME280;10104;50.732;10.174;2022-12-26T07:51:19;97610.22;;;11.29;99.99
19884;BME280;10104;50.732;10.174;2022-12-26T07:53:41;97588.03;;;11.37;99.60
19884;BME280;10104;50.732;10.174;2022-12-26T07:56:03;97593.75;;;11.34;100.00
19884;BME280;10104;50.732;10.174;2022-12-26T07:58:24;97602.91;;;11.31;99.98
19884;BME280;10104;50.732;10.174;2022-12-26T08:00:46;97607.59;;;11.36;100.00
19884;BME280;10104;50.732;10.174;2022-12-26T08:03:08;97598.38;;;11.19;100.00
19884;BME280;10104;50.732;10.174;2022-12-26T08:05:29;97619.78;;;11.24;100.00
19884;BME280;10104;50.732;10.174;2022-12-26T08:07:51;97614.47;;;11.17;100.00
19884;BME280;10104;50.732;10.174;2022-12-26T08:10:13;97609.81;;;11.19;100.00
19884;BME280;10104;50.732;10.174;2022-12-26T08:12:35;97621.41;;;11.18;100.00
19884;BME280;10104;50.732;10.174;2022-12-26T08:14:56;97611.41;;;11.14;100.00
19884;BME280;10104;50.732;10.174;2022-12-26T08:17:18;97618.72;;;11.12;100.00
19884;BME280;10104;50.732;10.174;2022-12-26T08:19:39;97591.22;;;11.13;100.00
19884;BME280;10104;50.732;10.174;2022-12-26T08:22:01;97589.19;;;11.08;100.00
19884;BME280;10104;50.732;10.174;2022-12-26T08:24:22;97580.44;;;11.14;100.00
19884;BME280;10104;50.732;10.174;2022-12-26T08:26:44;97597.97;;;11.15;100.00
19884;BME280;10104;50.732;10.174;2022-12-26T08:29:05;97592.47;;;11.23;100.00
19884;BME280;10104;50.732;10.174;2022-12-26T08:31:27;97604.13;;;11.22;100.00
19884;BME280;10104;50.732;10.174;2022-12-26T08:33:48;97611.66;;;11.25;100.00
19884;BME280;10104;50.732;10.174;2022-12-26T08:36:11;97618.97;;;11.10;100.00
19884;BME280;10104;50.732;10.174;2022-12-26T08:38:33;97618.34;;;11.15;100.00
19884;BME280;10104;50.732;10.174;2022-12-26T08:40:54;97625.88;;;11.11;100.00
19884;BME280;10104;50.732;10.174;2022-12-26T08:43:19;97631.56;;;11.08;100.00
19884;BME280;10104;50.732;10.174;2022-12-26T08:46:03;97632.56;;;11.01;100.00
19884;BME280;10104;50.732;10.174;2022-12-26T08:48:25;97640.97;;;11.11;100.00
19884;BME280;10104;50.732;10.174;2022-12-26T08:50:47;97652.97;;;11.07;100.00
19884;BME280;10104;50.732;10.174;2022-12-26T08:53:08;97645.47;;;11.17;100.00
19884;BME280;10104;50.732;10.174;2022-12-26T08:55:30;97632.81;;;11.12;100.00
19884;BME280;10104;50.732;10.174;2022-12-26T08:57:51;97652.41;;;11.18;100.00
19884;BME280;10104;50.732;10.174;2022-12-26T09:00:13;97634.69;;;11.25;100.00
19884;BME280;10104;50.732;10.174;2022-12-26T09:02:35;97647.16;;;11.31;100.00
19884;BME280;10104;50.732;10.174;2022-12-26T09:04:56;97643.13;;;11.42;100.00
19884;BME280;10104;50.732;10.174;2022-12-26T09:07:18;97634.94;;;11.36;100.00
19884;BME280;10104;50.732;10.174;2022-12-26T09:09:39;97633.69;;;11.32;100.00
19884;BME280;10104;50.732;10.174;2022-12-26T09:12:01;97630.22;;;11.32;100.00
19884;BME280;10104;50.732;10.174;2022-12-26T09:14:22;97633.47;;;11.27;100.00
19884;BME280;10104;50.732;10.174;2022-12-26T09:16:44;97629.41;;;11.31;100.00
19884;BME280;10104;50.732;10.174;2022-12-26T09:19:14;97625.53;;;11.27;100.00
19884;BME280;10104;50.732;10.174;2022-12-26T09:21:38;97625.38;;;11.35;100.00
19884;BME280;10104;50.732;10.174;2022-12-26T09:24:02;97651.25;;;11.33;100.00
19884;BME280;10104;50.732;10.174;2022-12-26T09:26:26;97646.34;;;11.37;99.79
19884;BME280;10104;50.732;10.174;2022-12-26T09:28:48;97645.16;;;11.46;99.39
19884;BME280;10104;50.732;10.174;2022-12-26T09:31:18;97642.72;;;11.45;99.89
19884;BME280;10104;50.732;10.174;2022-12-26T09:33:40;97651.09;;;11.55;100.00
19884;BME280;10104;50.732;10.174;2022-12-26T09:36:10;97670.47;;;11.55;98.43
19884;BME280;10104;50.732;10.174;2022-12-26T09:38:35;97685.97;;;11.52;98.85
19884;BME280;10104;50.732;10.174;2022-12-26T09:43:36;97678.41;;;11.49;98.44
19884;BME280;10104;50.732;10.174;2022-12-26T09:46:21;97691.44;;;11.44;97.88
19884;BME280;10104;50.732;10.174;2022-12-26T09:48:55;97680.41;;;11.33;96.57
19884;BME280;10104;50.732;10.174;2022-12-26T09:51:17;97687.31;;;11.28;96.46
19884;BME280;10104;50.732;10.174;2022-12-26T09:53:41;97679.56;;;11.26;97.67
19884;BME280;10104;50.732;10.174;2022-12-26T09:56:06;97691.78;;;11.27;97.29
19884;BME280;10104;50.732;10.174;2022-12-26T09:58:49;97685.03;;;11.25;97.02
19884;BME280;10104;50.732;10.174;2022-12-26T10:01:15;97671.00;;;11.31;95.58
19884;BME280;10104;50.732;10.174;2022-12-26T10:03:41;97677.75;;;11.33;97.37
19884;BME280;10104;50.732;10.174;2022-12-26T10:06:11;97677.75;;;11.33;96.93
19884;BME280;10104;50.732;10.174;2022-12-26T10:11:06;97707.25;;;11.24;98.23
19884;BME280;10104;50.732;10.174;2022-12-26T10:13:47;97705.69;;;11.36;98.56
19884;BME280;10104;50.732;10.174;2022-12-26T10:17:00;97701.56;;;11.27;97.88
19884;BME280;10104;50.732;10.174;2022-12-26T10:21:51;97718.66;;;11.18;98.55
19884;BME280;10104;50.732;10.174;2022-12-26T10:24:21;97709.03;;;11.10;97.70
19884;BME280;10104;50.732;10.174;2022-12-26T10:26:46;97710.25;;;11.08;99.11
19884;BME280;10104;50.732;10.174;2022-12-26T10:29:23;97707.78;;;11.06;98.51
19884;BME280;10104;50.732;10.174;2022-12-26T10:31:59;97689.03;;;11.08;99.11
19884;BME280;10104;50.732;10.174;2022-12-26T10:34:27;97703.06;;;11.02;98.95
19884;BME280;10104;50.732;10.174;2022-12-26T10:39:30;97698.22;;;11.12;99.40
19884;BME280;10104;50.732;10.174;2022-12-26T10:41:58;97702.09;;;11.09;100.00
19884;BME280;10104;50.732;10.174;2022-12-26T10:44:21;97713.56;;;11.16;98.40
19884;BME280;10104;50.732;10.174;2022-12-26T10:47:15;97692.97;;;11.18;97.98
19884;BME280;10104;50.732;10.174;2022-12-26T10:49:41;97711.09;;;11.15;98.67
19884;BME280;10104;50.732;10.174;2022-12-26T10:52:04;97735.06;;;11.00;98.68
19884;BME280;10104;50.732;10.174;2022-12-26T10:54:27;97707.56;;;11.01;99.88
19884;BME280;10104;50.732;10.174;2022-12-26T10:56:50;97719.84;;;11.09;99.60
19884;BME280;10104;50.732;10.174;2022-12-26T10:59:20;97677.28;;;11.17;99.68
19884;BME280;10104;50.732;10.174;2022-12-26T11:01:42;97685.72;;;11.33;98.52
19884;BME280;10104;50.732;10.174;2022-12-26T11:04:22;97703.50;;;11.46;99.15
19884;BME280;10104;50.732;10.174;2022-12-26T11:07:09;97693.72;;;11.47;97.90
19884;BME280;10104;50.732;10.174;2022-12-26T11:09:44;97695.72;;;11.45;97.35
19884;BME280;10104;50.732;10.174;2022-12-26T11:12:20;97701.91;;;11.58;98.01
19884;BME280;10104;50.732;10.174;2022-12-26T11:14:44;97695.53;;;11.46;97.73
19884;BME280;10104;50.732;10.174;2022-12-26T11:17:10;97690.88;;;11.55;97.74
19884;BME280;10104;50.732;10.174;2022-12-26T11:19:35;97687.81;;;11.51;97.46
19884;BME280;10104;50.732;10.174;2022-12-26T11:22:23;97705.97;;;11.54;96.65
19884;BME280;10104;50.732;10.174;2022-12-26T11:24:45;97705.75;;;11.56;97.49
19884;BME280;10104;50.732;10.174;2022-12-26T11:27:17;97706.41;;;11.58;97.28
19884;BME280;10104;50.732;10.174;2022-12-26T11:29:40;97695.00;;;11.64;96.32
19884;BME280;10104;50.732;10.174;2022-12-26T11:32:03;97696.44;;;11.66;98.01
19884;BME280;10104;50.732;10.174;2022-12-26T11:34:35;97701.53;;;11.68;97.31
19884;BME280;10104;50.732;10.174;2022-12-26T11:36:58;97714.56;;;11.63;96.57
19884;BME280;10104;50.732;10.174;2022-12-26T11:39:37;97703.56;;;11.59;98.38
19884;BME280;10104;50.732;10.174;2022-12-26T11:41:59;97705.41;;;11.65;97.22
19884;BME280;10104;50.732;10.174;2022-12-26T11:44:27;97710.50;;;11.67;97.38
19884;BME280;10104;50.732;10.174;2022-12-26T11:49:39;97703.22;;;11.75;96.48
19884;BME280;10104;50.732;10.174;2022-12-26T11:54:51;97701.81;;;11.93;94.49
19884;BME280;10104;50.732;10.174;2022-12-26T11:57:19;97703.63;;;11.86;94.74
19884;BME280;10104;50.732;10.174;2022-12-26T11:59:43;97713.03;;;11.88;95.16
19884;BME280;10104;50.732;10.174;2022-12-26T12:04:40;97721.81;;;11.89;93.76
19884;BME280;10104;50.732;10.174;2022-12-26T12:07:15;97692.84;;;11.94;95.15
19884;BME280;10104;50.732;10.174;2022-12-26T12:10:26;97705.47;;;11.85;94.28
19884;BME280;10104;50.732;10.174;2022-12-26T12:15:31;97697.72;;;11.84;94.37
19884;BME280;10104;50.732;10.174;2022-12-26T12:18:19;97691.19;;;11.86;95.70
19884;BME280;10104;50.732;10.174;2022-12-26T12:23:46;97679.75;;;11.79;95.03
19884;BME280;10104;50.732;10.174;2022-12-26T12:26:16;97676.06;;;11.73;94.46
19884;BME280;10104;50.732;10.174;2022-12-26T12:28:57;97684.47;;;11.84;93.28
19884;BME280;10104;50.732;10.174;2022-12-26T12:34:23;97680.56;;;11.86;94.51
19884;BME280;10104;50.732;10.174;2022-12-26T12:40:01;97687.50;;;11.74;92.94
19884;BME280;10104;50.732;10.174;2022-12-26T12:45:21;97670.69;;;11.60;93.71
19884;BME280;10104;50.732;10.174;2022-12-26T12:50:15;97689.25;;;11.54;94.11
19884;BME280;10104;50.732;10.174;2022-12-26T12:58:22;97685.13;;;11.45;95.32
19884;BME280;10104;50.732;10.174;2022-12-26T13:00:51;97665.78;;;11.57;94.97
19884;BME280;10104;50.732;10.174;2022-12-26T13:08:34;97692.06;;;11.46;92.35
19884;BME280;10104;50.732;10.174;2022-12-26T13:11:00;97682.28;;;11.46;93.36
19884;BME280;10104;50.732;10.174;2022-12-26T13:13:32;97672.28;;;11.48;94.44
19884;BME280;10104;50.732;10.174;2022-12-26T13:16:09;97665.97;;;11.49;94.57
19884;BME280;10104;50.732;10.174;2022-12-26T13:18:35;97654.59;;;11.62;93.71
19884;BME280;10104;50.732;10.174;2022-12-26T13:21:07;97661.09;;;11.53;93.65
19884;BME280;10104;50.732;10.174;2022-12-26T13:23:39;97660.25;;;11.46;94.42
19884;BME280;10104;50.732;10.174;2022-12-26T13:26:28;97648.84;;;11.45;94.11
19884;BME280;10104;50.732;10.174;2022-12-26T13:29:13;97647.63;;;11.48;93.71
19884;BME280;10104;50.732;10.174;2022-12-26T13:31:38;97648.59;;;11.33;94.00
19884;BME280;10104;50.732;10.174;2022-12-26T13:34:00;97659.81;;;11.35;94.32
19884;BME280;10104;50.732;10.174;2022-12-26T13:41:50;97649.38;;;11.21;95.14
19884;BME280;10104;50.732;10.174;2022-12-26T13:44:31;97647.34;;;11.23;94.74
19884;BME280;10104;50.732;10.174;2022-12-26T13:46:55;97648.31;;;11.15;94.38
19884;BME280;10104;50.732;10.174;2022-12-26T13:49:38;97674.38;;;11.12;94.84
19884;BME280;10104;50.732;10.174;2022-12-26T13:54:30;97666.03;;;11.08;95.49
19884;BME280;10104;50.732;10.174;2022-12-26T13:57:06;97681.69;;;11.03;96.24
19884;BME280;10104;50.732;10.174;2022-12-26T13:59:38;97669.00;;;10.92;98.70
19884;BME280;10104;50.732;10.174;2022-12-26T14:02:43;97649.47;;;11.00;99.13
19884;BME280;10104;50.732;10.174;2022-12-26T14:05:32;97657.66;;;11.05;100.00
19884;BME280;10104;50.732;10.174;2022-12-26T14:18:55;97682.69;;;10.68;100.00
19884;BME280;10104;50.732;10.174;2022-12-26T14:21:42;97667.84;;;10.67;100.00
19884;BME280;10104;50.732;10.174;2022-12-26T14:26:42;97686.03;;;10.48;100.00
19884;BME280;10104;50.732;10.174;2022-12-26T14:32:20;97681.47;;;10.36;100.00
19884;BME280;10104;50.732;10.174;2022-12-26T14:35:00;97678.59;;;10.37;100.00
19884;BME280;10104;50.732;10.174;2022-12-26T14:40:15;97687.56;;;10.36;100.00
19884;BME280;10104;50.732;10.174;2022-12-26T14:47:59;97682.00;;;10.31;100.00